sensor_id;sensor_type;location;lat;lon;timestamp;temperature;humidity
3705;DHT22;1868;48.918;9.438;2023-08-21T00:01:31;24.20;97.40
3705;DHT22;1868;48.918;9.438;2023-08-21T00:04:04;24.10;97.40
3705;DHT22;1868;48.918;9.438;2023-08-21T00:06:34;24.00;97.40
3705;DHT22;1868;48.918;9.438;2023-08-21T00:09:03;23.90;97.40
3705;DHT22;1868;48.918;9.438;2023-08-21T00:11:35;23.90;97.40
3705;DHT22;1868;48.918;9.438;2023-08-21T00:14:05;23.80;97.40
3705;DHT22;1868;48.918;9.438;2023-08-21T00:16:35;23.80;97.40
3705;DHT22;1868;48.918;9.438;2023-08-21T00:19:05;23.80;97.40
3705;DHT22;1868;48.918;9.438;2023-08-21T00:21:34;23.70;97.40
3705;DHT22;1868;48.918;9.438;2023-08-21T00:24:05;23.70;97.40
3705;DHT22;1868;48.918;9.438;2023-08-21T00:26:35;23.60;97.40
3705;DHT22;1868;48.918;9.438;2023-08-21T00:29:27;23.70;97.40
3705;DHT22;1868;48.918;9.438;2023-08-21T00:31:57;23.60;97.40
3705;DHT22;1868;48.918;9.438;2023-08-21T00:34:29;23.60;97.40
3705;DHT22;1868;48.918;9.438;2023-08-21T00:36:58;23.60;97.40
3705;DHT22;1868;48.918;9.438;2023-08-21T00:39:27;23.60;97.40
3705;DHT22;1868;48.918;9.438;2023-08-21T00:41:57;23.70;97.40
3705;DHT22;1868;48.918;9.438;2023-08-21T00:44:25;23.70;97.40
3705;DHT22;1868;48.918;9.438;2023-08-21T00:46:54;23.80;97.40
3705;DHT22;1868;48.918;9.438;2023-08-21T00:49:26;23.90;97.40
3705;DHT22;1868;48.918;9.438;2023-08-21T00:51:56;23.90;97.40
3705;DHT22;1868;48.918;9.438;2023-08-21T01:04:16;23.70;97.40
3705;DHT22;1868;48.918;9.438;2023-08-21T01:06:45;23.60;97.40
3705;DHT22;1868;48.918;9.438;2023-08-21T01:09:19;23.60;97.40
3705;DHT22;1868;48.918;9.438;2023-08-21T01:12:03;23.60;97.40
3705;DHT22;1868;48.918;9.438;2023-08-21T01:14:43;23.60;97.40
3705;DHT22;1868;48.918;9.438;2023-08-21T01:17:20;23.60;97.40
3705;DHT22;1868;48.918;9.438;2023-08-21T01:19:53;23.60;97.40
3705;DHT22;1868;48.918;9.438;2023-08-21T01:22:26;23.60;97.40
3705;DHT22;1868;48.918;9.438;2023-08-21T01:24:57;23.50;97.40
3705;DHT22;1868;48.918;9.438;2023-08-21T01:27:29;23.40;97.40
3705;DHT22;1868;48.918;9.438;2023-08-21T01:30:06;23.40;97.40
3705;DHT22;1868;48.918;9.438;2023-08-21T01:32:43;23.30;97.40
3705;DHT22;1868;48.918;9.438;2023-08-21T01:35:14;23.20;97.40
3705;DHT22;1868;48.918;9.438;2023-08-21T01:37:43;23.10;97.40
3705;DHT22;1868;48.918;9.438;2023-08-21T01:43:18;23.00;97.40
3705;DHT22;1868;48.918;9.438;2023-08-21T01:45:48;23.00;97.40
3705;DHT22;1868;48.918;9.438;2023-08-21T01:48:18;22.90;97.40
3705;DHT22;1868;48.918;9.438;2023-08-21T01:50:47;22.90;97.40
3705;DHT22;1868;48.918;9.438;2023-08-21T01:53:17;22.80;97.40
3705;DHT22;1868;48.918;9.438;2023-08-21T01:55:47;22.70;97.40
3705;DHT22;1868;48.918;9.438;2023-08-21T01:58:18;22.70;97.40
3705;DHT22;1868;48.918;9.438;2023-08-21T02:00:47;22.70;97.40
3705;DHT22;1868;48.918;9.438;2023-08-21T02:03:16;22.80;97.40
3705;DHT22;1868;48.918;9.438;2023-08-21T02:05:46;22.70;97.40
3705;DHT22;1868;48.918;9.438;2023-08-21T02:08:17;22.70;97.40
3705;DHT22;1868;48.918;9.438;2023-08-21T02:10:49;22.60;97.40
3705;DHT22;1868;48.918;9.438;2023-08-21T02:13:19;22.60;97.40
3705;DHT22;1868;48.918;9.438;2023-08-21T02:15:51;22.60;97.40
3705;DHT22;1868;48.918;9.438;2023-08-21T02:18:20;22.50;97.40
3705;DHT22;1868;48.918;9.438;2023-08-21T02:20:51;22.40;97.40
3705;DHT22;1868;48.918;9.438;2023-08-21T02:23:21;22.30;97.40
3705;DHT22;1868;48.918;9.438;2023-08-21T02:25:54;22.30;97.40
3705;DHT22;1868;48.918;9.438;2023-08-21T02:28:25;22.20;97.40
3705;DHT22;1868;48.918;9.438;2023-08-21T02:30:54;22.20;97.40
3705;DHT22;1868;48.918;9.438;2023-08-21T02:33:25;22.20;97.40
3705;DHT22;1868;48.918;9.438;2023-08-21T02:39:15;22.10;97.40
3705;DHT22;1868;48.918;9.438;2023-08-21T02:41:44;22.00;97.40
3705;DHT22;1868;48.918;9.438;2023-08-21T02:44:17;22.00;97.40
3705;DHT22;1868;48.918;9.438;2023-08-21T02:46:46;22.00;97.40
3705;DHT22;1868;48.918;9.438;2023-08-21T02:49:16;22.00;97.40
3705;DHT22;1868;48.918;9.438;2023-08-21T02:51:45;22.00;97.40
3705;DHT22;1868;48.918;9.438;2023-08-21T02:54:14;21.90;97.40
3705;DHT22;1868;48.918;9.438;2023-08-21T02:56:43;21.90;97.40
3705;DHT22;1868;48.918;9.438;2023-08-21T02:59:12;21.90;97.40
3705;DHT22;1868;48.918;9.438;2023-08-21T03:01:44;21.80;97.40
3705;DHT22;1868;48.918;9.438;2023-08-21T03:04:13;21.80;97.40
3705;DHT22;1868;48.918;9.438;2023-08-21T03:06:43;21.80;97.40
3705;DHT22;1868;48.918;9.438;2023-08-21T03:09:12;21.80;97.40
3705;DHT22;1868;48.918;9.438;2023-08-21T03:11:41;21.80;97.40
3705;DHT22;1868;48.918;9.438;2023-08-21T03:14:13;21.70;97.40
3705;DHT22;1868;48.918;9.438;2023-08-21T03:16:44;21.80;97.40
3705;DHT22;1868;48.918;9.438;2023-08-21T03:19:18;21.70;97.40
3705;DHT22;1868;48.918;9.438;2023-08-21T03:21:49;21.70;97.40
3705;DHT22;1868;48.918;9.438;2023-08-21T03:24:22;21.70;97.40
3705;DHT22;1868;48.918;9.438;2023-08-21T03:26:53;21.70;97.40
3705;DHT22;1868;48.918;9.438;2023-08-21T03:29:22;21.70;97.40
3705;DHT22;1868;48.918;9.438;2023-08-21T03:31:54;21.70;97.40
3705;DHT22;1868;48.918;9.438;2023-08-21T03:34:26;21.70;97.40
3705;DHT22;1868;48.918;9.438;2023-08-21T03:37:01;21.60;97.40
3705;DHT22;1868;48.918;9.438;2023-08-21T03:39:32;21.60;97.40
3705;DHT22;1868;48.918;9.438;2023-08-21T03:42:02;21.60;97.40
3705;DHT22;1868;48.918;9.438;2023-08-21T03:44:30;21.60;97.40
3705;DHT22;1868;48.918;9.438;2023-08-21T03:47:02;21.60;97.40
3705;DHT22;1868;48.918;9.438;2023-08-21T03:49:33;21.50;97.40
3705;DHT22;1868;48.918;9.438;2023-08-21T03:52:02;21.50;97.40
3705;DHT22;1868;48.918;9.438;2023-08-21T03:54:31;21.50;97.40
3705;DHT22;1868;48.918;9.438;2023-08-21T03:57:00;21.40;97.40
3705;DHT22;1868;48.918;9.438;2023-08-21T03:59:28;21.40;97.40
3705;DHT22;1868;48.918;9.438;2023-08-21T04:01:57;21.40;97.40
3705;DHT22;1868;48.918;9.438;2023-08-21T04:04:26;21.30;97.40
3705;DHT22;1868;48.918;9.438;2023-08-21T04:06:55;21.30;97.40
3705;DHT22;1868;48.918;9.438;2023-08-21T04:09:23;21.20;97.40
3705;DHT22;1868;48.918;9.438;2023-08-21T04:11:52;21.20;97.40
3705;DHT22;1868;48.918;9.438;2023-08-21T04:14:20;21.20;97.40
3705;DHT22;1868;48.918;9.438;2023-08-21T04:16:49;21.20;97.40
3705;DHT22;1868;48.918;9.438;2023-08-21T04:19:19;21.10;97.40
3705;DHT22;1868;48.918;9.438;2023-08-21T04:21:49;21.10;97.40
3705;DHT22;1868;48.918;9.438;2023-08-21T04:24:18;21.10;97.40
3705;DHT22;1868;48.918;9.438;2023-08-21T04:26:46;21.10;97.40
3705;DHT22;1868;48.918;9.438;2023-08-21T04:29:15;21.10;97.40
3705;DHT22;1868;48.918;9.438;2023-08-21T04:31:44;21.10;97.40
3705;DHT22;1868;48.918;9.438;2023-08-21T04:34:15;21.20;97.40
3705;DHT22;1868;48.918;9.438;2023-08-21T04:36:49;21.20;97.40
3705;DHT22;1868;48.918;9.438;2023-08-21T04:39:17;21.20;97.40
3705;DHT22;1868;48.918;9.438;2023-08-21T04:41:46;21.20;97.40
3705;DHT22;1868;48.918;9.438;2023-08-21T04:44:17;21.20;97.40
3705;DHT22;1868;48.918;9.438;2023-08-21T04:46:48;21.30;97.40
3705;DHT22;1868;48.918;9.438;2023-08-21T04:49:18;21.30;97.40
3705;DHT22;1868;48.918;9.438;2023-08-21T04:51:52;21.30;97.40
3705;DHT22;1868;48.918;9.438;2023-08-21T04:54:23;21.30;97.40
3705;DHT22;1868;48.918;9.438;2023-08-21T04:56:53;21.40;97.40
3705;DHT22;1868;48.918;9.438;2023-08-21T04:59:24;21.40;97.40
3705;DHT22;1868;48.918;9.438;2023-08-21T05:01:53;21.40;97.40
3705;DHT22;1868;48.918;9.438;2023-08-21T05:04:24;21.40;97.40
3705;DHT22;1868;48.918;9.438;2023-08-21T05:06:54;21.40;97.40
3705;DHT22;1868;48.918;9.438;2023-08-21T05:09:33;21.50;97.40
3705;DHT22;1868;48.918;9.438;2023-08-21T05:12:03;21.50;97.40
3705;DHT22;1868;48.918;9.438;2023-08-21T05:14:32;21.70;97.40
3705;DHT22;1868;48.918;9.438;2023-08-21T05:17:00;21.80;97.40
3705;DHT22;1868;48.918;9.438;2023-08-21T05:19:32;21.90;97.40
3705;DHT22;1868;48.918;9.438;2023-08-21T05:22:04;22.00;97.40
3705;DHT22;1868;48.918;9.438;2023-08-21T05:24:34;22.00;97.40
3705;DHT22;1868;48.918;9.438;2023-08-21T05:27:05;22.10;97.40
3705;DHT22;1868;48.918;9.438;2023-08-21T05:29:34;22.10;97.40
3705;DHT22;1868;48.918;9.438;2023-08-21T05:32:04;22.20;97.40
3705;DHT22;1868;48.918;9.438;2023-08-21T05:34:34;22.20;97.40
3705;DHT22;1868;48.918;9.438;2023-08-21T05:37:05;22.30;97.40
3705;DHT22;1868;48.918;9.438;2023-08-21T05:39:33;22.40;97.40
3705;DHT22;1868;48.918;9.438;2023-08-21T05:42:04;22.50;97.40
3705;DHT22;1868;48.918;9.438;2023-08-21T05:44:34;22.70;97.40
3705;DHT22;1868;48.918;9.438;2023-08-21T05:47:03;22.90;97.40
3705;DHT22;1868;48.918;9.438;2023-08-21T05:49:32;23.00;97.40
3705;DHT22;1868;48.918;9.438;2023-08-21T05:52:01;23.10;97.40
3705;DHT22;1868;48.918;9.438;2023-08-21T05:54:32;23.30;97.40
3705;DHT22;1868;48.918;9.438;2023-08-21T05:57:01;23.40;97.40
3705;DHT22;1868;48.918;9.438;2023-08-21T05:59:31;23.50;97.40
3705;DHT22;1868;48.918;9.438;2023-08-21T06:02:02;23.60;97.40
3705;DHT22;1868;48.918;9.438;2023-08-21T06:04:31;23.70;97.40
3705;DHT22;1868;48.918;9.438;2023-08-21T06:07:02;23.70;97.40
3705;DHT22;1868;48.918;9.438;2023-08-21T06:09:33;23.90;97.40
3705;DHT22;1868;48.918;9.438;2023-08-21T06:12:09;24.00;97.40
3705;DHT22;1868;48.918;9.438;2023-08-21T06:14:39;24.10;97.40
3705;DHT22;1868;48.918;9.438;2023-08-21T06:17:09;24.30;97.40
3705;DHT22;1868;48.918;9.438;2023-08-21T06:19:38;24.40;97.40
3705;DHT22;1868;48.918;9.438;2023-08-21T06:22:07;24.60;97.40
3705;DHT22;1868;48.918;9.438;2023-08-21T06:24:38;24.70;97.40
3705;DHT22;1868;48.918;9.438;2023-08-21T06:27:12;24.80;97.40
3705;DHT22;1868;48.918;9.438;2023-08-21T06:29:42;24.90;97.40
3705;DHT22;1868;48.918;9.438;2023-08-21T06:32:12;25.00;97.40
3705;DHT22;1868;48.918;9.438;2023-08-21T06:34:42;25.10;97.40
3705;DHT22;1868;48.918;9.438;2023-08-21T06:37:10;25.20;97.40
3705;DHT22;1868;48.918;9.438;2023-08-21T06:39:41;25.30;97.40
3705;DHT22;1868;48.918;9.438;2023-08-21T06:42:10;25.40;97.40
3705;DHT22;1868;48.918;9.438;2023-08-21T06:44:44;25.50;97.40
3705;DHT22;1868;48.918;9.438;2023-08-21T06:47:14;25.70;97.40
3705;DHT22;1868;48.918;9.438;2023-08-21T06:49:43;25.90;97.40
3705;DHT22;1868;48.918;9.438;2023-08-21T06:52:12;26.10;97.40
3705;DHT22;1868;48.918;9.438;2023-08-21T06:54:42;26.30;97.40
3705;DHT22;1868;48.918;9.438;2023-08-21T06:57:11;26.50;97.40
3705;DHT22;1868;48.918;9.438;2023-08-21T06:59:40;26.60;97.40
3705;DHT22;1868;48.918;9.438;2023-08-21T07:02:09;26.80;97.40
3705;DHT22;1868;48.918;9.438;2023-08-21T07:04:37;27.00;97.40
3705;DHT22;1868;48.918;9.438;2023-08-21T07:07:06;27.20;97.40
3705;DHT22;1868;48.918;9.438;2023-08-21T07:09:35;27.30;97.40
3705;DHT22;1868;48.918;9.438;2023-08-21T07:12:07;27.50;97.40
3705;DHT22;1868;48.918;9.438;2023-08-21T07:14:37;27.60;97.40
3705;DHT22;1868;48.918;9.438;2023-08-21T07:17:06;27.80;97.40
3705;DHT22;1868;48.918;9.438;2023-08-21T07:19:36;27.90;97.40
3705;DHT22;1868;48.918;9.438;2023-08-21T07:22:04;28.10;97.40
3705;DHT22;1868;48.918;9.438;2023-08-21T07:24:34;28.20;97.40
3705;DHT22;1868;48.918;9.438;2023-08-21T07:27:03;28.40;97.40
3705;DHT22;1868;48.918;9.438;2023-08-21T07:29:33;28.60;97.40
3705;DHT22;1868;48.918;9.438;2023-08-21T07:32:01;28.80;97.40
3705;DHT22;1868;48.918;9.438;2023-08-21T07:34:34;29.00;97.40
3705;DHT22;1868;48.918;9.438;2023-08-21T07:37:04;29.30;97.40
3705;DHT22;1868;48.918;9.438;2023-08-21T07:39:33;29.70;97.40
3705;DHT22;1868;48.918;9.438;2023-08-21T07:42:01;29.90;97.40
3705;DHT22;1868;48.918;9.438;2023-08-21T07:44:32;30.00;97.40
3705;DHT22;1868;48.918;9.438;2023-08-21T07:47:02;30.10;97.40
3705;DHT22;1868;48.918;9.438;2023-08-21T07:49:31;30.00;97.40
3705;DHT22;1868;48.918;9.438;2023-08-21T07:52:02;30.20;97.40
3705;DHT22;1868;48.918;9.438;2023-08-21T07:54:31;30.70;97.40
3705;DHT22;1868;48.918;9.438;2023-08-21T07:57:00;31.20;97.40
3705;DHT22;1868;48.918;9.438;2023-08-21T07:59:28;31.60;97.40
3705;DHT22;1868;48.918;9.438;2023-08-21T08:01:59;31.90;97.40
3705;DHT22;1868;48.918;9.438;2023-08-21T08:04:29;32.30;97.40
3705;DHT22;1868;48.918;9.438;2023-08-21T08:06:58;32.40;97.40
3705;DHT22;1868;48.918;9.438;2023-08-21T08:09:27;32.50;97.40
3705;DHT22;1868;48.918;9.438;2023-08-21T08:11:56;33.20;97.40
3705;DHT22;1868;48.918;9.438;2023-08-21T08:14:25;33.80;97.40
3705;DHT22;1868;48.918;9.438;2023-08-21T08:16:54;34.40;97.10
3705;DHT22;1868;48.918;9.438;2023-08-21T08:19:24;34.90;95.50
3705;DHT22;1868;48.918;9.438;2023-08-21T08:21:54;35.40;94.80
3705;DHT22;1868;48.918;9.438;2023-08-21T08:24:23;35.60;93.20
3705;DHT22;1868;48.918;9.438;2023-08-21T08:26:52;36.00;91.70
3705;DHT22;1868;48.918;9.438;2023-08-21T08:29:21;36.50;91.40
3705;DHT22;1868;48.918;9.438;2023-08-21T08:31:50;37.10;89.60
3705;DHT22;1868;48.918;9.438;2023-08-21T08:34:19;37.60;88.60
3705;DHT22;1868;48.918;9.438;2023-08-21T08:36:50;37.70;87.50
3705;DHT22;1868;48.918;9.438;2023-08-21T08:39:18;38.00;86.40
3705;DHT22;1868;48.918;9.438;2023-08-21T08:41:50;38.40;81.70
3705;DHT22;1868;48.918;9.438;2023-08-21T08:44:24;39.00;82.50
3705;DHT22;1868;48.918;9.438;2023-08-21T08:46:53;39.60;81.70
3705;DHT22;1868;48.918;9.438;2023-08-21T08:49:24;40.00;74.60
3705;DHT22;1868;48.918;9.438;2023-08-21T08:51:54;40.30;72.20
3705;DHT22;1868;48.918;9.438;2023-08-21T08:54:22;40.30;72.20
3705;DHT22;1868;48.918;9.438;2023-08-21T08:56:52;40.00;75.60
3705;DHT22;1868;48.918;9.438;2023-08-21T08:59:23;40.40;72.00
3705;DHT22;1868;48.918;9.438;2023-08-21T09:01:53;40.30;70.70
3705;DHT22;1868;48.918;9.438;2023-08-21T09:04:24;40.70;69.80
3705;DHT22;1868;48.918;9.438;2023-08-21T09:07:06;41.30;71.80
3705;DHT22;1868;48.918;9.438;2023-08-21T09:09:38;42.10;65.10
3705;DHT22;1868;48.918;9.438;2023-08-21T09:12:10;42.00;63.10
3705;DHT22;1868;48.918;9.438;2023-08-21T09:14:41;41.90;62.00
3705;DHT22;1868;48.918;9.438;2023-08-21T09:17:11;42.00;62.70
3705;DHT22;1868;48.918;9.438;2023-08-21T09:19:40;42.60;64.00
3705;DHT22;1868;48.918;9.438;2023-08-21T09:22:13;43.20;60.50
3705;DHT22;1868;48.918;9.438;2023-08-21T09:25:02;43.70;59.90
3705;DHT22;1868;48.918;9.438;2023-08-21T09:27:34;44.50;57.50
3705;DHT22;1868;48.918;9.438;2023-08-21T09:30:04;44.80;57.70
3705;DHT22;1868;48.918;9.438;2023-08-21T09:32:52;44.50;54.00
3705;DHT22;1868;48.918;9.438;2023-08-21T09:35:24;44.80;55.10
3705;DHT22;1868;48.918;9.438;2023-08-21T09:37:54;44.90;54.30
3705;DHT22;1868;48.918;9.438;2023-08-21T09:40:23;45.00;54.90
3705;DHT22;1868;48.918;9.438;2023-08-21T09:42:55;45.40;54.30
3705;DHT22;1868;48.918;9.438;2023-08-21T09:45:28;45.90;52.80
3705;DHT22;1868;48.918;9.438;2023-08-21T09:47:57;46.40;53.10
3705;DHT22;1868;48.918;9.438;2023-08-21T09:50:29;46.70;51.10
3705;DHT22;1868;48.918;9.438;2023-08-21T09:53:02;47.10;48.70
3705;DHT22;1868;48.918;9.438;2023-08-21T09:55:32;46.90;49.60
3705;DHT22;1868;48.918;9.438;2023-08-21T09:58:02;46.70;49.00
3705;DHT22;1868;48.918;9.438;2023-08-21T10:00:33;46.50;48.20
3705;DHT22;1868;48.918;9.438;2023-08-21T10:03:06;46.40;49.10
3705;DHT22;1868;48.918;9.438;2023-08-21T10:05:39;46.70;49.70
3705;DHT22;1868;48.918;9.438;2023-08-21T10:08:10;46.90;48.10
3705;DHT22;1868;48.918;9.438;2023-08-21T10:10:40;46.80;48.50
3705;DHT22;1868;48.918;9.438;2023-08-21T10:13:11;46.90;49.70
3705;DHT22;1868;48.918;9.438;2023-08-21T10:15:41;47.20;46.10
3705;DHT22;1868;48.918;9.438;2023-08-21T10:18:21;47.10;48.10
3705;DHT22;1868;48.918;9.438;2023-08-21T10:20:52;47.50;46.50
3705;DHT22;1868;48.918;9.438;2023-08-21T10:23:27;47.70;46.40
3705;DHT22;1868;48.918;9.438;2023-08-21T10:25:58;48.00;47.60
3705;DHT22;1868;48.918;9.438;2023-08-21T10:28:50;48.20;46.40
3705;DHT22;1868;48.918;9.438;2023-08-21T10:31:30;48.20;45.00
3705;DHT22;1868;48.918;9.438;2023-08-21T10:34:05;48.00;44.60
3705;DHT22;1868;48.918;9.438;2023-08-21T10:37:07;47.70;44.40
3705;DHT22;1868;48.918;9.438;2023-08-21T10:39:54;47.20;45.90
3705;DHT22;1868;48.918;9.438;2023-08-21T10:42:39;47.70;46.70
3705;DHT22;1868;48.918;9.438;2023-08-21T10:45:14;48.30;43.00
3705;DHT22;1868;48.918;9.438;2023-08-21T10:47:42;48.60;44.10
3705;DHT22;1868;48.918;9.438;2023-08-21T10:50:14;48.60;44.10
3705;DHT22;1868;48.918;9.438;2023-08-21T10:52:45;48.80;45.20
3705;DHT22;1868;48.918;9.438;2023-08-21T10:55:15;48.90;42.40
3705;DHT22;1868;48.918;9.438;2023-08-21T10:57:46;49.20;40.00
3705;DHT22;1868;48.918;9.438;2023-08-21T11:00:17;49.20;42.30
3705;DHT22;1868;48.918;9.438;2023-08-21T11:02:50;49.80;41.50
3705;DHT22;1868;48.918;9.438;2023-08-21T11:05:21;49.80;39.10
3705;DHT22;1868;48.918;9.438;2023-08-21T11:07:50;49.80;42.00
3705;DHT22;1868;48.918;9.438;2023-08-21T11:10:27;49.80;41.20
3705;DHT22;1868;48.918;9.438;2023-08-21T11:12:59;50.00;41.50
3705;DHT22;1868;48.918;9.438;2023-08-21T11:15:32;49.90;41.20
3705;DHT22;1868;48.918;9.438;2023-08-21T11:18:01;50.20;40.90
3705;DHT22;1868;48.918;9.438;2023-08-21T11:20:34;50.20;40.30
3705;DHT22;1868;48.918;9.438;2023-08-21T11:23:19;50.10;38.00
3705;DHT22;1868;48.918;9.438;2023-08-21T11:25:54;49.80;40.80
3705;DHT22;1868;48.918;9.438;2023-08-21T11:28:40;49.60;38.80
3705;DHT22;1868;48.918;9.438;2023-08-21T11:31:11;49.70;41.10
3705;DHT22;1868;48.918;9.438;2023-08-21T11:33:41;49.80;41.50
3705;DHT22;1868;48.918;9.438;2023-08-21T11:36:09;49.80;39.20
3705;DHT22;1868;48.918;9.438;2023-08-21T11:38:41;49.00;38.30
3705;DHT22;1868;48.918;9.438;2023-08-21T11:41:12;48.50;41.70
3705;DHT22;1868;48.918;9.438;2023-08-21T11:43:42;48.90;41.70
3705;DHT22;1868;48.918;9.438;2023-08-21T11:46:11;49.30;42.30
3705;DHT22;1868;48.918;9.438;2023-08-21T11:48:41;49.20;39.80
3705;DHT22;1868;48.918;9.438;2023-08-21T11:51:10;49.40;40.80
3705;DHT22;1868;48.918;9.438;2023-08-21T11:53:48;49.70;38.90
3705;DHT22;1868;48.918;9.438;2023-08-21T11:56:19;49.60;38.80
3705;DHT22;1868;48.918;9.438;2023-08-21T11:58:51;49.70;39.40
3705;DHT22;1868;48.918;9.438;2023-08-21T12:01:21;49.30;36.80
3705;DHT22;1868;48.918;9.438;2023-08-21T12:03:54;48.50;37.90
3705;DHT22;1868;48.918;9.438;2023-08-21T12:06:24;48.20;39.40
3705;DHT22;1868;48.918;9.438;2023-08-21T12:08:54;48.30;40.50
3705;DHT22;1868;48.918;9.438;2023-08-21T12:11:28;48.80;40.00
3705;DHT22;1868;48.918;9.438;2023-08-21T12:13:59;48.80;36.80
3705;DHT22;1868;48.918;9.438;2023-08-21T12:16:28;48.50;36.60
3705;DHT22;1868;48.918;9.438;2023-08-21T12:18:58;48.00;37.70
3705;DHT22;1868;48.918;9.438;2023-08-21T12:21:26;48.10;38.80
3705;DHT22;1868;48.918;9.438;2023-08-21T12:23:55;48.80;37.40
3705;DHT22;1868;48.918;9.438;2023-08-21T12:26:30;49.20;37.70
3705;DHT22;1868;48.918;9.438;2023-08-21T12:29:16;49.60;37.90
3705;DHT22;1868;48.918;9.438;2023-08-21T12:31:45;49.80;36.20
3705;DHT22;1868;48.918;9.438;2023-08-21T12:34:14;48.50;37.60
3705;DHT22;1868;48.918;9.438;2023-08-21T12:36:43;48.40;38.50
3705;DHT22;1868;48.918;9.438;2023-08-21T12:39:12;48.40;39.80
3705;DHT22;1868;48.918;9.438;2023-08-21T12:41:45;48.50;40.00
3705;DHT22;1868;48.918;9.438;2023-08-21T12:44:16;48.70;38.80
3705;DHT22;1868;48.918;9.438;2023-08-21T12:46:46;48.50;37.70
3705;DHT22;1868;48.918;9.438;2023-08-21T12:49:14;48.20;38.80
3705;DHT22;1868;48.918;9.438;2023-08-21T12:51:43;48.60;39.50
3705;DHT22;1868;48.918;9.438;2023-08-21T12:54:12;48.70;38.20
3705;DHT22;1868;48.918;9.438;2023-08-21T12:56:41;48.80;37.30
3705;DHT22;1868;48.918;9.438;2023-08-21T12:59:12;47.90;37.10
3705;DHT22;1868;48.918;9.438;2023-08-21T13:01:46;47.50;37.60
3705;DHT22;1868;48.918;9.438;2023-08-21T13:04:17;47.70;40.60
3705;DHT22;1868;48.918;9.438;2023-08-21T13:06:46;48.20;39.70
3705;DHT22;1868;48.918;9.438;2023-08-21T13:09:15;48.80;39.50
3705;DHT22;1868;48.918;9.438;2023-08-21T13:11:46;49.00;38.90
3705;DHT22;1868;48.918;9.438;2023-08-21T13:14:17;49.20;38.50
3705;DHT22;1868;48.918;9.438;2023-08-21T13:16:47;49.40;37.70
3705;DHT22;1868;48.918;9.438;2023-08-21T13:19:18;48.30;37.90
3705;DHT22;1868;48.918;9.438;2023-08-21T13:21:48;47.90;38.30
3705;DHT22;1868;48.918;9.438;2023-08-21T13:24:16;46.90;40.80
3705;DHT22;1868;48.918;9.438;2023-08-21T13:26:48;47.00;41.20
3705;DHT22;1868;48.918;9.438;2023-08-21T13:29:20;47.20;40.50
3705;DHT22;1868;48.918;9.438;2023-08-21T13:31:50;47.30;39.10
3705;DHT22;1868;48.918;9.438;2023-08-21T13:34:19;47.10;40.80
3705;DHT22;1868;48.918;9.438;2023-08-21T13:36:48;46.80;41.70
3705;DHT22;1868;48.918;9.438;2023-08-21T13:39:17;47.10;41.20
3705;DHT22;1868;48.918;9.438;2023-08-21T13:41:46;46.50;40.90
3705;DHT22;1868;48.918;9.438;2023-08-21T13:44:15;45.90;42.40
3705;DHT22;1868;48.918;9.438;2023-08-21T13:46:48;45.60;43.30
3705;DHT22;1868;48.918;9.438;2023-08-21T13:49:17;45.50;42.70
3705;DHT22;1868;48.918;9.438;2023-08-21T13:51:48;45.50;43.30
3705;DHT22;1868;48.918;9.438;2023-08-21T13:54:17;45.30;43.80
3705;DHT22;1868;48.918;9.438;2023-08-21T13:56:46;45.70;43.30
3705;DHT22;1868;48.918;9.438;2023-08-21T13:59:17;45.70;43.50
3705;DHT22;1868;48.918;9.438;2023-08-21T14:01:47;45.60;43.60
3705;DHT22;1868;48.918;9.438;2023-08-21T14:04:17;45.70;43.20
3705;DHT22;1868;48.918;9.438;2023-08-21T14:06:47;46.00;42.70
3705;DHT22;1868;48.918;9.438;2023-08-21T14:09:16;46.10;41.50
3705;DHT22;1868;48.918;9.438;2023-08-21T14:11:46;46.00;41.80
3705;DHT22;1868;48.918;9.438;2023-08-21T14:14:15;46.10;42.30
3705;DHT22;1868;48.918;9.438;2023-08-21T14:16:43;45.70;41.70
3705;DHT22;1868;48.918;9.438;2023-08-21T14:19:15;45.30;42.10
3705;DHT22;1868;48.918;9.438;2023-08-21T14:21:43;45.20;43.00
3705;DHT22;1868;48.918;9.438;2023-08-21T14:24:12;45.00;43.60
3705;DHT22;1868;48.918;9.438;2023-08-21T14:26:41;45.00;42.00
3705;DHT22;1868;48.918;9.438;2023-08-21T14:29:11;45.10;42.40
3705;DHT22;1868;48.918;9.438;2023-08-21T14:31:40;45.10;43.00
3705;DHT22;1868;48.918;9.438;2023-08-21T14:34:10;44.70;42.60
3705;DHT22;1868;48.918;9.438;2023-08-21T14:36:42;44.60;43.30
3705;DHT22;1868;48.918;9.438;2023-08-21T14:39:12;44.60;42.70
3705;DHT22;1868;48.918;9.438;2023-08-21T14:41:41;44.40;43.50
3705;DHT22;1868;48.918;9.438;2023-08-21T14:44:10;44.40;44.10
3705;DHT22;1868;48.918;9.438;2023-08-21T14:46:39;44.40;44.10
3705;DHT22;1868;48.918;9.438;2023-08-21T14:49:09;44.30;44.40
3705;DHT22;1868;48.918;9.438;2023-08-21T14:51:41;44.30;43.20
3705;DHT22;1868;48.918;9.438;2023-08-21T14:54:10;44.10;42.70
3705;DHT22;1868;48.918;9.438;2023-08-21T14:56:39;43.80;43.30
3705;DHT22;1868;48.918;9.438;2023-08-21T14:59:08;43.70;43.60
3705;DHT22;1868;48.918;9.438;2023-08-21T15:01:38;43.70;43.30
3705;DHT22;1868;48.918;9.438;2023-08-21T15:04:07;43.50;44.70
3705;DHT22;1868;48.918;9.438;2023-08-21T15:06:41;43.10;44.90
3705;DHT22;1868;48.918;9.438;2023-08-21T15:09:09;42.60;45.80
3705;DHT22;1868;48.918;9.438;2023-08-21T15:11:40;42.40;45.90
3705;DHT22;1868;48.918;9.438;2023-08-21T15:14:10;42.20;48.20
3705;DHT22;1868;48.918;9.438;2023-08-21T15:16:40;41.60;49.70
3705;DHT22;1868;48.918;9.438;2023-08-21T15:19:10;40.70;51.30
3705;DHT22;1868;48.918;9.438;2023-08-21T15:21:41;40.10;53.20
3705;DHT22;1868;48.918;9.438;2023-08-21T15:24:10;39.60;53.20
3705;DHT22;1868;48.918;9.438;2023-08-21T15:26:39;39.30;53.70
3705;DHT22;1868;48.918;9.438;2023-08-21T15:29:09;38.90;54.80
3705;DHT22;1868;48.918;9.438;2023-08-21T15:31:37;38.60;56.90
3705;DHT22;1868;48.918;9.438;2023-08-21T15:34:06;38.10;57.50
3705;DHT22;1868;48.918;9.438;2023-08-21T15:36:35;37.70;58.60
3705;DHT22;1868;48.918;9.438;2023-08-21T15:39:05;37.40;59.00
3705;DHT22;1868;48.918;9.438;2023-08-21T15:41:34;37.10;60.10
3705;DHT22;1868;48.918;9.438;2023-08-21T15:44:05;36.90;61.80
3705;DHT22;1868;48.918;9.438;2023-08-21T15:46:33;36.50;64.00
3705;DHT22;1868;48.918;9.438;2023-08-21T15:49:02;36.20;64.60
3705;DHT22;1868;48.918;9.438;2023-08-21T15:51:31;36.00;65.50
3705;DHT22;1868;48.918;9.438;2023-08-21T15:54:00;35.70;66.30
3705;DHT22;1868;48.918;9.438;2023-08-21T15:56:30;35.40;67.90
3705;DHT22;1868;48.918;9.438;2023-08-21T15:59:00;35.10;67.70
3705;DHT22;1868;48.918;9.438;2023-08-21T16:01:30;35.00;68.90
3705;DHT22;1868;48.918;9.438;2023-08-21T16:04:01;34.90;70.40
3705;DHT22;1868;48.918;9.438;2023-08-21T16:06:32;34.70;70.40
3705;DHT22;1868;48.918;9.438;2023-08-21T16:09:02;34.60;71.30
3705;DHT22;1868;48.918;9.438;2023-08-21T16:11:33;34.50;72.00
3705;DHT22;1868;48.918;9.438;2023-08-21T16:14:03;34.40;73.90
3705;DHT22;1868;48.918;9.438;2023-08-21T16:16:35;34.30;73.00
3705;DHT22;1868;48.918;9.438;2023-08-21T16:19:05;34.20;74.30
3705;DHT22;1868;48.918;9.438;2023-08-21T16:21:33;34.00;74.80
3705;DHT22;1868;48.918;9.438;2023-08-21T16:24:06;33.90;74.80
3705;DHT22;1868;48.918;9.438;2023-08-21T16:26:38;33.70;76.70
3705;DHT22;1868;48.918;9.438;2023-08-21T16:29:10;33.60;77.10
3705;DHT22;1868;48.918;9.438;2023-08-21T16:31:42;33.50;77.60
3705;DHT22;1868;48.918;9.438;2023-08-21T16:34:12;33.40;78.00
3705;DHT22;1868;48.918;9.438;2023-08-21T16:36:41;33.30;79.30
3705;DHT22;1868;48.918;9.438;2023-08-21T16:39:10;33.20;79.90
3705;DHT22;1868;48.918;9.438;2023-08-21T16:41:43;33.00;80.80